createdAt,value
2019-01-25T00:00:41.615Z,34.57
2019-01-25T00:03:12.587Z,34.40
2019-01-25T00:05:43.259Z,34.97
2019-01-25T00:08:13.583Z,34.30
2019-01-25T00:10:43.875Z,33.60
2019-01-25T00:13:14.936Z,33.87
2019-01-25T00:15:45.202Z,35.27
2019-01-25T00:18:15.574Z,34.40
2019-01-25T00:20:46.003Z,34.93
2019-01-25T00:23:16.768Z,34.10
2019-01-25T00:25:48.066Z,33.23
2019-01-25T00:28:18.380Z,33.63
2019-01-25T00:30:48.661Z,34.30
2019-01-25T00:33:18.946Z,34.20
2019-01-25T00:35:49.293Z,35.90
2019-01-25T00:38:20.017Z,38.77
2019-01-25T00:40:50.333Z,37.03
2019-01-25T00:43:20.981Z,38.10
2019-01-25T00:45:51.250Z,39.17
2019-01-25T00:48:21.927Z,37.33
2019-01-25T00:50:52.320Z,36.43
2019-01-25T00:53:22.619Z,40.17
2019-01-25T00:55:52.983Z,35.53
2019-01-25T00:58:23.322Z,33.20
2019-01-25T01:00:53.641Z,32.63
2019-01-25T01:03:23.843Z,33.80
2019-01-25T01:05:54.089Z,34.63
2019-01-25T01:08:27.311Z,32.83
2019-01-25T01:10:57.677Z,34.70
2019-01-25T01:13:28.361Z,31.00
2019-01-25T01:15:59.023Z,32.70
2019-01-25T01:18:29.266Z,30.63
2019-01-25T01:20:59.561Z,33.23
2019-01-25T01:23:29.795Z,33.20
2019-01-25T01:26:00.179Z,35.20
2019-01-25T01:28:30.515Z,36.43
2019-01-25T01:31:00.863Z,37.20
2019-01-25T01:33:31.199Z,32.33
2019-01-25T01:36:01.802Z,33.07
2019-01-25T01:38:32.444Z,34.90
2019-01-25T01:41:03.052Z,32.23
2019-01-25T01:43:33.354Z,32.27
2019-01-25T01:46:03.797Z,33.13
2019-01-25T01:48:34.390Z,32.07
2019-01-25T01:51:04.865Z,33.80
2019-01-25T01:53:35.174Z,33.37
2019-01-25T01:56:05.448Z,34.30
2019-01-25T01:58:35.760Z,34.40
2019-01-25T02:01:06.496Z,34.47
2019-01-25T02:03:37.171Z,32.90
2019-01-25T02:06:07.783Z,35.23
2019-01-25T02:08:38.368Z,35.87
2019-01-25T02:11:08.618Z,37.50
2019-01-25T02:13:38.916Z,36.93
2019-01-25T02:16:09.216Z,35.87
2019-01-25T02:18:39.525Z,40.47
2019-01-25T02:21:10.330Z,38.27
2019-01-25T02:23:41.007Z,35.17
2019-01-25T02:26:11.693Z,36.77
2019-01-25T02:28:42.011Z,36.57
2019-01-25T02:31:12.634Z,38.23
2019-01-25T02:33:42.942Z,41.03
2019-01-25T02:36:13.512Z,40.80
2019-01-25T02:38:43.972Z,38.03
2019-01-25T02:41:14.620Z,38.23
2019-01-25T02:43:45.268Z,38.53
2019-01-25T02:46:15.525Z,39.27
2019-01-25T02:48:45.908Z,40.53
2019-01-25T02:51:16.513Z,42.40
2019-01-25T02:53:46.815Z,45.70
2019-01-25T02:56:17.109Z,41.20
2019-01-25T02:58:47.378Z,45.47
2019-01-25T03:01:18.052Z,41.10
2019-01-25T03:03:48.327Z,40.03
2019-01-25T03:06:18.663Z,41.10
2019-01-25T03:08:48.943Z,47.03
2019-01-25T03:11:19.605Z,49.37
2019-01-25T03:13:50.364Z,41.33
2019-01-25T03:16:20.678Z,49.40
2019-01-25T03:18:50.986Z,43.10
2019-01-25T03:21:21.689Z,43.63
2019-01-25T03:23:52.290Z,47.00
2019-01-25T03:26:22.533Z,42.17
2019-01-25T03:28:52.835Z,41.70
2019-01-25T03:31:23.504Z,40.20
2019-01-25T03:33:53.901Z,40.63
2019-01-25T03:36:24.148Z,40.97
2019-01-25T03:38:54.555Z,40.03
2019-01-25T03:41:24.906Z,39.27
2019-01-25T03:43:55.236Z,40.90
2019-01-25T03:46:25.488Z,47.03
2019-01-25T03:48:56.041Z,47.37
2019-01-25T03:51:26.344Z,39.77
2019-01-25T03:53:56.589Z,39.20
2019-01-25T03:56:26.896Z,38.13
2019-01-25T03:58:57.204Z,41.13
2019-01-25T04:01:27.481Z,42.03
2019-01-25T04:03:58.176Z,41.60
2019-01-25T04:06:28.887Z,38.43
2019-01-25T04:08:59.604Z,36.47
2019-01-25T04:11:29.930Z,45.40
2019-01-25T04:14:00.967Z,46.10
2019-01-25T04:16:31.222Z,42.13
2019-01-25T04:19:01.933Z,42.57
2019-01-25T04:21:32.206Z,44.47
2019-01-25T04:24:02.506Z,32.73
2019-01-25T04:26:33.073Z,40.20
2019-01-25T04:29:03.367Z,33.63
2019-01-25T04:31:33.607Z,32.47
2019-01-25T04:34:04.634Z,36.07
2019-01-25T04:36:34.898Z,33.17
2019-01-25T04:39:09.009Z,41.97
2019-01-25T04:41:39.676Z,35.60
2019-01-25T04:44:10.622Z,33.53
2019-01-25T04:46:40.926Z,35.60
2019-01-25T04:49:11.634Z,35.83
2019-01-25T04:51:42.342Z,46.23
2019-01-25T04:54:12.603Z,38.60
2019-01-25T04:56:42.882Z,47.33
2019-01-25T04:59:13.116Z,43.27
2019-01-25T05:01:43.409Z,42.47
2019-01-25T05:04:13.684Z,38.20
2019-01-25T05:06:43.884Z,41.93
2019-01-25T05:09:14.995Z,42.90
2019-01-25T05:11:45.184Z,33.73
2019-01-25T05:14:16.115Z,35.73
2019-01-25T05:16:46.334Z,39.37
2019-01-25T05:19:16.557Z,34.50
2019-01-25T05:21:46.792Z,38.20
2019-01-25T05:24:17.358Z,34.40
2019-01-25T05:26:47.616Z,35.90
2019-01-25T05:29:22.417Z,34.23
2019-01-25T05:31:52.744Z,35.13
2019-01-25T05:34:23.582Z,35.10
2019-01-25T05:36:53.647Z,36.77
2019-01-25T05:39:24.292Z,40.90
2019-01-25T05:41:54.799Z,39.00
2019-01-25T05:44:24.986Z,35.33
2019-01-25T05:46:55.147Z,37.37
2019-01-25T05:49:26.101Z,34.17
2019-01-25T05:51:56.981Z,35.70
2019-01-25T05:54:27.180Z,36.83
2019-01-25T05:56:57.414Z,36.87
2019-01-25T05:59:27.638Z,40.23
2019-01-25T06:01:57.850Z,36.77
2019-01-25T06:04:35.116Z,36.00
2019-01-25T06:07:05.709Z,35.33
2019-01-25T06:09:36.326Z,34.67
2019-01-25T06:12:06.536Z,35.20
2019-01-25T06:14:36.746Z,32.90
2019-01-25T06:17:07.537Z,33.10
2019-01-25T06:19:37.955Z,34.00
2019-01-25T06:22:08.180Z,33.47
2019-01-25T06:24:38.431Z,33.87
2019-01-25T06:27:08.638Z,34.17
2019-01-25T06:29:38.823Z,32.30
2019-01-25T06:32:09.178Z,35.27
2019-01-25T06:34:39.395Z,38.40
2019-01-25T06:37:09.932Z,34.27
2019-01-25T06:39:40.159Z,35.20
2019-01-25T06:42:10.389Z,34.53
2019-01-25T06:44:40.594Z,34.40
2019-01-25T06:47:10.833Z,32.83
2019-01-25T06:49:41.025Z,34.13
2019-01-25T06:52:11.535Z,33.40
2019-01-25T06:54:41.811Z,33.57
2019-01-25T06:57:24.898Z,32.77
2019-01-25T06:59:55.543Z,35.20
2019-01-25T07:02:33.056Z,32.93
2019-01-25T07:05:04.410Z,32.57
2019-01-25T07:07:37.247Z,32.93
2019-01-25T07:10:12.023Z,33.47
2019-01-25T07:12:42.245Z,34.93
2019-01-25T07:15:14.903Z,33.13
2019-01-25T07:17:45.072Z,34.27
2019-01-25T07:20:15.737Z,35.67
2019-01-25T07:22:46.286Z,33.93
2019-01-25T07:25:16.905Z,32.67
2019-01-25T07:27:47.114Z,33.57
2019-01-25T07:30:17.799Z,33.23
2019-01-25T07:32:48.063Z,31.37
2019-01-25T07:35:18.322Z,33.10
2019-01-25T07:37:48.527Z,33.17
2019-01-25T07:40:18.867Z,32.83
2019-01-25T07:42:49.025Z,32.77
2019-01-25T07:45:19.266Z,31.87
2019-01-25T07:47:49.812Z,33.50
2019-01-25T07:50:20.055Z,32.47
2019-01-25T07:52:50.638Z,32.20
2019-01-25T07:55:20.908Z,33.23
2019-01-25T07:57:51.170Z,34.00
2019-01-25T08:00:22.212Z,34.67
2019-01-25T08:02:52.393Z,37.20
2019-01-25T08:05:22.596Z,34.30
2019-01-25T08:07:52.883Z,32.40
2019-01-25T08:10:23.521Z,32.43
2019-01-25T08:12:53.766Z,31.93
2019-01-25T08:15:24.303Z,37.33
2019-01-25T08:17:54.700Z,32.73
2019-01-25T08:20:25.368Z,35.40
2019-01-25T08:22:55.557Z,34.30
2019-01-25T08:25:26.036Z,34.63
2019-01-25T08:27:56.337Z,35.07
2019-01-25T08:30:26.642Z,37.70
2019-01-25T08:32:56.984Z,33.63
2019-01-25T08:35:27.647Z,34.70
2019-01-25T08:37:57.906Z,33.40
2019-01-25T08:40:28.424Z,34.13
2019-01-25T08:42:58.829Z,36.40
2019-01-25T08:45:29.473Z,34.43
2019-01-25T08:47:59.770Z,37.17
2019-01-25T08:50:29.976Z,38.43
2019-01-25T08:53:00.204Z,36.30
2019-01-25T08:55:30.836Z,37.17
2019-01-25T08:58:01.703Z,33.53
2019-01-25T09:00:31.978Z,37.20
2019-01-25T09:03:02.237Z,37.53
2019-01-25T09:05:32.907Z,36.73
2019-01-25T09:08:03.193Z,38.47
2019-01-25T09:10:33.411Z,39.43
2019-01-25T09:13:04.670Z,39.13
2019-01-25T09:15:35.135Z,38.53
2019-01-25T09:18:05.890Z,38.63
2019-01-25T09:20:36.156Z,40.43
2019-01-25T09:23:06.293Z,42.00
2019-01-25T09:25:36.506Z,42.00
2019-01-25T09:28:06.982Z,41.43
2019-01-25T09:30:37.893Z,41.50
2019-01-25T09:33:08.014Z,40.63
2019-01-25T09:35:38.234Z,44.07
2019-01-25T09:38:09.034Z,39.60
2019-01-25T09:40:39.273Z,42.03
2019-01-25T09:43:09.947Z,39.83
2019-01-25T09:45:40.587Z,43.13
2019-01-25T09:48:10.829Z,43.00
2019-01-25T09:50:41.316Z,42.67
2019-01-25T09:53:12.303Z,43.23
2019-01-25T09:55:42.988Z,42.40
2019-01-25T09:58:15.405Z,45.50
2019-01-25T10:00:49.641Z,44.67
2019-01-25T10:03:19.968Z,44.05
2019-01-25T10:05:50.341Z,43.03
2019-01-25T10:08:20.974Z,41.57
2019-01-25T10:10:51.166Z,43.20
2019-01-25T10:13:21.380Z,44.40
2019-01-25T10:15:52.038Z,42.50
2019-01-25T10:18:24.834Z,44.03
2019-01-25T10:20:54.153Z,43.40
2019-01-25T10:23:24.449Z,44.07
2019-01-25T10:25:54.743Z,46.47
2019-01-25T10:28:25.262Z,44.07
2019-01-25T10:30:55.523Z,42.03
2019-01-25T10:33:26.243Z,44.33
2019-01-25T10:35:56.753Z,43.07
2019-01-25T10:38:26.995Z,44.90
2019-01-25T10:40:57.280Z,43.23
2019-01-25T10:43:28.022Z,43.03
2019-01-25T10:45:58.464Z,42.23
2019-01-25T10:48:28.649Z,43.60
2019-01-25T10:50:58.890Z,44.27
2019-01-25T10:53:29.573Z,43.60
2019-01-25T10:56:00.251Z,42.47
2019-01-25T10:58:30.567Z,43.23
2019-01-25T11:01:01.528Z,43.20
2019-01-25T11:03:32.405Z,44.00
2019-01-25T11:06:03.121Z,43.30
2019-01-25T11:08:33.633Z,44.53
2019-01-25T11:11:04.865Z,43.50
2019-01-25T11:13:35.508Z,42.67
2019-01-25T11:16:06.148Z,44.30
2019-01-25T11:18:36.902Z,44.37
2019-01-25T11:21:07.105Z,44.90
2019-01-25T11:23:37.330Z,43.77
2019-01-25T11:26:07.999Z,42.47
2019-01-25T11:28:38.173Z,44.73
2019-01-25T11:31:08.697Z,43.23
2019-01-25T11:33:39.233Z,45.03
2019-01-25T11:36:09.494Z,41.67
2019-01-25T11:38:39.674Z,42.63
2019-01-25T11:41:10.233Z,42.17
2019-01-25T11:43:40.481Z,42.07
2019-01-25T11:46:10.739Z,41.17
2019-01-25T11:48:40.979Z,40.70
2019-01-25T11:51:11.554Z,41.50
2019-01-25T11:53:41.801Z,39.13
2019-01-25T11:56:11.984Z,38.80
2019-01-25T11:58:42.111Z,38.67
2019-01-25T12:01:12.717Z,37.97
2019-01-25T12:03:42.908Z,39.30
2019-01-25T12:06:13.108Z,39.33
2019-01-25T12:08:43.487Z,39.83
2019-01-25T12:11:13.709Z,38.13
2019-01-25T12:13:44.170Z,38.67
2019-01-25T12:16:14.429Z,38.23
2019-01-25T12:18:44.703Z,38.27
2019-01-25T12:21:15.384Z,36.77
2019-01-25T12:23:45.804Z,35.17
2019-01-25T12:26:16.694Z,37.53
2019-01-25T12:28:46.894Z,36.43
2019-01-25T12:31:17.562Z,35.77
2019-01-25T12:33:47.721Z,34.00
2019-01-25T12:36:18.299Z,34.90
2019-01-25T12:38:48.814Z,33.07
2019-01-25T12:41:19.093Z,32.33
2019-01-25T12:43:49.592Z,32.60
2019-01-25T12:46:19.836Z,31.80
2019-01-25T12:48:50.130Z,31.63
2019-01-25T12:51:27.577Z,32.33
2019-01-25T12:53:58.321Z,31.53
2019-01-25T12:56:28.858Z,32.30
2019-01-25T12:58:59.367Z,32.23
2019-01-25T13:01:35.688Z,31.47
2019-01-25T13:04:05.933Z,30.73
2019-01-25T13:06:37.639Z,29.83
2019-01-25T13:09:10.396Z,31.07
2019-01-25T13:11:40.665Z,31.47
2019-01-25T13:14:10.896Z,31.73
2019-01-25T13:16:41.869Z,30.40
2019-01-25T13:19:12.198Z,30.27
2019-01-25T13:21:42.381Z,30.00
2019-01-25T13:24:12.689Z,30.13
2019-01-25T13:26:42.939Z,29.37
2019-01-25T13:29:13.518Z,29.93
2019-01-25T13:31:44.328Z,29.90
2019-01-25T13:34:14.876Z,29.80
2019-01-25T13:36:45.082Z,29.70
2019-01-25T13:39:15.563Z,31.40
2019-01-25T13:41:46.230Z,31.93
2019-01-25T13:44:16.514Z,29.90
2019-01-25T13:46:46.754Z,32.53
2019-01-25T13:49:16.931Z,33.57
2019-01-25T13:51:47.143Z,34.83
2019-01-25T13:54:17.424Z,34.03
2019-01-25T13:56:47.648Z,33.47
2019-01-25T13:59:18.354Z,35.57
2019-01-25T14:01:48.588Z,33.73
2019-01-25T14:04:18.781Z,33.43
2019-01-25T14:06:49.709Z,33.47
2019-01-25T14:09:20.260Z,29.93
2019-01-25T14:11:50.623Z,34.43
2019-01-25T14:14:21.441Z,34.97
2019-01-25T14:16:51.585Z,33.53
2019-01-25T14:19:22.084Z,34.30
2019-01-25T14:21:52.602Z,34.97
2019-01-25T14:24:22.824Z,34.37
2019-01-25T14:26:53.033Z,33.17
2019-01-25T14:29:23.300Z,34.47
2019-01-25T14:31:53.934Z,32.73
2019-01-25T14:34:24.686Z,32.20
2019-01-25T14:36:54.948Z,31.80
2019-01-25T14:39:25.064Z,32.07
2019-01-25T14:41:55.351Z,32.13
2019-01-25T14:44:26.112Z,34.20
2019-01-25T14:46:56.343Z,32.97
2019-01-25T14:49:26.575Z,33.77
2019-01-25T14:51:56.827Z,32.83
2019-01-25T14:54:27.139Z,31.83
2019-01-25T14:56:57.425Z,31.93
2019-01-25T14:59:27.696Z,29.80
2019-01-25T15:01:57.930Z,30.47
2019-01-25T15:04:28.245Z,30.57
2019-01-25T15:06:59.096Z,32.30
2019-01-25T15:09:29.290Z,32.40
2019-01-25T15:11:59.512Z,30.37
2019-01-25T15:14:30.210Z,31.03
2019-01-25T15:17:00.410Z,30.00
2019-01-25T15:19:30.689Z,29.93
2019-01-25T15:22:00.840Z,30.77
2019-01-25T15:24:31.937Z,29.33
2019-01-25T15:27:02.530Z,31.40
2019-01-25T15:29:32.865Z,29.97
2019-01-25T15:32:03.106Z,29.17
2019-01-25T15:34:33.614Z,27.73
2019-01-25T15:37:04.759Z,27.57
2019-01-25T15:39:35.340Z,27.60
2019-01-25T15:42:08.065Z,26.50
2019-01-25T15:44:38.261Z,28.17
2019-01-25T15:47:08.545Z,27.33
2019-01-25T15:49:39.092Z,28.33
2019-01-25T15:52:09.893Z,28.93
2019-01-25T15:54:40.665Z,29.30
2019-01-25T15:57:11.350Z,28.27
2019-01-25T15:59:41.894Z,28.27
2019-01-25T16:02:12.604Z,29.10
2019-01-25T16:04:42.827Z,26.70
2019-01-25T16:07:13.084Z,27.43
2019-01-25T16:09:43.838Z,28.87
2019-01-25T16:12:14.308Z,26.27
2019-01-25T16:14:44.829Z,27.40
2019-01-25T16:17:15.062Z,28.00
2019-01-25T16:19:45.326Z,25.90
2019-01-25T16:22:15.565Z,27.43
2019-01-25T16:24:46.230Z,24.73
2019-01-25T16:27:16.707Z,27.75
2019-01-25T16:29:47.043Z,25.80
2019-01-25T16:32:17.220Z,25.30
2019-01-25T16:34:47.981Z,28.47
2019-01-25T16:37:18.263Z,28.62
2019-01-25T16:39:48.494Z,29.07
2019-01-25T16:42:19.136Z,28.80
2019-01-25T16:44:49.350Z,27.93
2019-01-25T16:47:19.485Z,28.10
2019-01-25T16:49:49.669Z,27.40
2019-01-25T16:52:20.497Z,26.83
2019-01-25T16:54:50.718Z,27.33
2019-01-25T16:57:20.920Z,26.07
2019-01-25T16:59:51.076Z,27.00
2019-01-25T17:02:21.316Z,26.43
2019-01-25T17:04:52.122Z,26.80
2019-01-25T17:07:22.704Z,26.83
2019-01-25T17:09:53.234Z,28.33
2019-01-25T17:12:23.450Z,27.37
2019-01-25T17:14:53.710Z,25.73
2019-01-25T17:17:24.239Z,25.20
2019-01-25T17:19:54.440Z,25.90
2019-01-25T17:22:24.629Z,25.67
2019-01-25T17:24:55.152Z,25.80
2019-01-25T17:27:25.359Z,25.87
2019-01-25T17:29:55.583Z,24.60
2019-01-25T17:32:25.711Z,26.63
2019-01-25T17:34:55.920Z,25.97
2019-01-25T17:37:26.023Z,27.70
2019-01-25T17:39:56.588Z,25.77
2019-01-25T17:42:28.172Z,25.93
2019-01-25T17:44:58.798Z,25.60
2019-01-25T17:47:29.723Z,26.07
2019-01-25T17:50:00.273Z,27.03
2019-01-25T17:52:30.762Z,25.67
2019-01-25T17:55:01.273Z,24.40
2019-01-25T17:57:31.485Z,27.07
2019-01-25T18:00:01.669Z,25.97
2019-01-25T18:02:32.247Z,25.57
2019-01-25T18:05:02.388Z,28.23
2019-01-25T18:07:32.645Z,28.20
2019-01-25T18:10:02.906Z,25.67
2019-01-25T18:12:33.078Z,25.40
2019-01-25T18:15:03.552Z,25.80
2019-01-25T18:17:33.798Z,28.17
2019-01-25T18:20:04.534Z,27.43
2019-01-25T18:22:34.787Z,27.43
2019-01-25T18:25:06.094Z,26.03
2019-01-25T18:27:36.248Z,26.27
2019-01-25T18:30:14.025Z,26.70
2019-01-25T18:32:44.212Z,26.27
2019-01-25T18:35:14.440Z,24.23
2019-01-25T18:37:45.047Z,29.03
2019-01-25T18:40:15.744Z,28.70
2019-01-25T18:42:45.902Z,25.30
2019-01-25T18:45:16.139Z,26.17
2019-01-25T18:47:46.368Z,25.77
2019-01-25T18:50:17.262Z,24.70
2019-01-25T18:52:47.447Z,23.80
2019-01-25T18:55:19.226Z,24.60
2019-01-25T18:57:49.388Z,22.70
2019-01-25T19:00:20.623Z,24.43
2019-01-25T19:02:50.934Z,21.47
2019-01-25T19:05:21.506Z,22.80
2019-01-25T19:07:51.751Z,19.73
2019-01-25T19:10:24.017Z,20.60
2019-01-25T19:12:54.286Z,23.73
2019-01-25T19:15:26.740Z,24.37
2019-01-25T19:17:56.845Z,22.40
2019-01-25T19:20:27.563Z,28.67
2019-01-25T19:22:57.772Z,29.40
2019-01-25T19:25:28.217Z,22.53
2019-01-25T19:27:58.426Z,21.33
2019-01-25T19:30:31.245Z,32.23
2019-01-25T19:33:01.958Z,22.90
2019-01-25T19:35:32.202Z,21.37
2019-01-25T19:38:02.399Z,24.37
2019-01-25T19:40:33.431Z,26.67
2019-01-25T19:43:04.310Z,29.70
2019-01-25T19:45:34.492Z,26.23
2019-01-25T19:48:05.501Z,26.63
2019-01-25T19:50:35.988Z,23.97
2019-01-25T19:53:06.780Z,36.67
2019-01-25T19:55:37.088Z,23.77
2019-01-25T19:58:09.142Z,25.27
2019-01-25T20:00:40.654Z,22.50
2019-01-25T20:03:11.366Z,25.70
2019-01-25T20:05:41.587Z,23.60
2019-01-25T20:08:12.047Z,25.80
2019-01-25T20:10:42.651Z,25.03
2019-01-25T20:13:13.496Z,29.57
2019-01-25T20:15:43.669Z,23.63
2019-01-25T20:18:14.277Z,22.43
2019-01-25T20:20:44.487Z,28.87
2019-01-25T20:23:14.776Z,23.30
2019-01-25T20:25:45.072Z,23.67
2019-01-25T20:28:15.271Z,21.43
2019-01-25T20:30:49.756Z,30.07
2019-01-25T20:33:17.636Z,22.57
2019-01-25T20:35:47.822Z,22.17
2019-01-25T20:38:18.049Z,26.50
2019-01-25T20:40:48.253Z,42.90
2019-01-25T20:43:18.442Z,29.07
2019-01-25T20:45:48.684Z,35.20
2019-01-25T20:48:20.497Z,23.67
2019-01-25T20:50:51.172Z,19.73
2019-01-25T20:53:21.426Z,30.95
2019-01-25T20:55:52.294Z,20.70
2019-01-25T20:58:22.472Z,20.50
2019-01-25T21:00:52.792Z,20.97
2019-01-25T21:03:23.322Z,30.07
2019-01-25T21:05:53.652Z,20.97
2019-01-25T21:08:23.895Z,19.77
2019-01-25T21:10:54.130Z,26.97
2019-01-25T21:13:24.367Z,20.33
2019-01-25T21:15:55.318Z,20.47
2019-01-25T21:18:25.493Z,19.53
2019-01-25T21:20:55.750Z,25.33
2019-01-25T21:23:26.320Z,25.53
2019-01-25T21:25:56.540Z,22.30
2019-01-25T21:28:26.812Z,20.60
2019-01-25T21:30:57.643Z,20.50
2019-01-25T21:33:27.886Z,22.47
2019-01-25T21:35:58.313Z,19.20
2019-01-25T21:38:29.760Z,21.23
2019-01-25T21:41:00.314Z,19.13
2019-01-25T21:43:30.563Z,20.63
2019-01-25T21:46:00.821Z,19.77
2019-01-25T21:48:31.017Z,20.60
2019-01-25T21:51:01.281Z,22.90
2019-01-25T21:53:31.662Z,18.10
2019-01-25T21:56:01.837Z,19.67
2019-01-25T21:58:32.096Z,17.90
2019-01-25T22:01:02.652Z,18.23
2019-01-25T22:03:33.039Z,18.87
2019-01-25T22:06:03.243Z,16.40
2019-01-25T22:08:33.439Z,16.40
2019-01-25T22:11:03.571Z,17.20
2019-01-25T22:13:34.437Z,17.37
2019-01-25T22:16:04.760Z,16.40
2019-01-25T22:18:34.997Z,13.77
2019-01-25T22:21:05.574Z,16.17
2019-01-25T22:23:35.690Z,15.13
2019-01-25T22:26:06.005Z,14.00
2019-01-25T22:28:36.547Z,12.97
2019-01-25T22:31:07.228Z,11.30
2019-01-25T22:33:37.455Z,11.87
2019-01-25T22:36:08.037Z,11.63
2019-01-25T22:38:38.222Z,12.97
2019-01-25T22:41:08.873Z,13.73
2019-01-25T22:43:39.382Z,14.53
2019-01-25T22:46:09.581Z,14.63
2019-01-25T22:48:40.203Z,12.83
2019-01-25T22:51:11.150Z,10.83
2019-01-25T22:53:41.686Z,11.33
2019-01-25T22:56:12.206Z,11.07
2019-01-25T22:58:42.708Z,10.20
2019-01-25T23:01:40.510Z,10.17
2019-01-25T23:04:31.262Z,10.27
2019-01-25T23:07:10.702Z,10.20
2019-01-25T23:09:52.316Z,8.77
2019-01-25T23:12:22.488Z,9.77
2019-01-25T23:14:53.657Z,10.40
2019-01-25T23:17:23.985Z,9.00
2019-01-25T23:19:54.195Z,10.70
2019-01-25T23:22:24.687Z,9.13
2019-01-25T23:24:55.153Z,10.50
2019-01-25T23:27:25.371Z,10.50
2019-01-25T23:29:56.217Z,8.80
2019-01-25T23:32:26.666Z,8.83
2019-01-25T23:34:56.806Z,9.00
2019-01-25T23:37:27.378Z,9.23
2019-01-25T23:39:57.878Z,9.70
2019-01-25T23:42:28.515Z,9.07
2019-01-25T23:44:58.735Z,8.30
2019-01-25T23:47:28.965Z,7.80
2019-01-25T23:49:59.151Z,8.50
2019-01-25T23:52:29.505Z,7.37
2019-01-25T23:54:59.740Z,8.17
2019-01-25T23:57:30.418Z,8.53
